sensor_id;sensor_type;location;lat;lon;timestamp;temperature;humidity
36990;DHT22;22898;52.102;5.776;2023-06-10T00:01:24;28.80;61.40
36990;DHT22;22898;52.102;5.776;2023-06-10T00:03:50;28.70;61.50
36990;DHT22;22898;52.102;5.776;2023-06-10T00:06:17;28.70;61.80
36990;DHT22;22898;52.102;5.776;2023-06-10T00:08:43;28.60;61.40
36990;DHT22;22898;52.102;5.776;2023-06-10T00:11:08;28.70;61.10
36990;DHT22;22898;52.102;5.776;2023-06-10T00:13:35;28.70;60.80
36990;DHT22;22898;52.102;5.776;2023-06-10T00:16:01;28.60;60.80
36990;DHT22;22898;52.102;5.776;2023-06-10T00:18:26;28.50;61.00
36990;DHT22;22898;52.102;5.776;2023-06-10T00:20:52;28.40;61.30
36990;DHT22;22898;52.102;5.776;2023-06-10T00:23:18;28.40;61.00
36990;DHT22;22898;52.102;5.776;2023-06-10T00:25:44;28.40;60.90
36990;DHT22;22898;52.102;5.776;2023-06-10T00:28:09;28.30;61.30
36990;DHT22;22898;52.102;5.776;2023-06-10T00:30:35;28.30;61.00
36990;DHT22;22898;52.102;5.776;2023-06-10T00:33:00;28.30;60.70
36990;DHT22;22898;52.102;5.776;2023-06-10T00:35:26;28.40;60.50
36990;DHT22;22898;52.102;5.776;2023-06-10T00:37:52;28.50;60.00
36990;DHT22;22898;52.102;5.776;2023-06-10T00:40:17;28.50;59.90
36990;DHT22;22898;52.102;5.776;2023-06-10T00:42:43;28.50;59.50
36990;DHT22;22898;52.102;5.776;2023-06-10T00:45:08;28.50;59.60
36990;DHT22;22898;52.102;5.776;2023-06-10T00:47:34;28.40;59.60
36990;DHT22;22898;52.102;5.776;2023-06-10T00:50:01;28.30;59.90
36990;DHT22;22898;52.102;5.776;2023-06-10T00:52:28;28.20;59.60
36990;DHT22;22898;52.102;5.776;2023-06-10T00:54:54;28.20;59.70
36990;DHT22;22898;52.102;5.776;2023-06-10T00:57:20;28.30;59.60
36990;DHT22;22898;52.102;5.776;2023-06-10T00:59:48;28.20;59.60
36990;DHT22;22898;52.102;5.776;2023-06-10T01:02:14;28.10;59.80
36990;DHT22;22898;52.102;5.776;2023-06-10T01:04:40;27.90;60.10
36990;DHT22;22898;52.102;5.776;2023-06-10T01:08:03;27.90;60.00
36990;DHT22;22898;52.102;5.776;2023-06-10T01:10:24;27.80;60.20
36990;DHT22;22898;52.102;5.776;2023-06-10T01:15:20;27.70;60.60
36990;DHT22;22898;52.102;5.776;2023-06-10T01:18:13;27.90;60.20
36990;DHT22;22898;52.102;5.776;2023-06-10T01:20:41;27.90;60.00
36990;DHT22;22898;52.102;5.776;2023-06-10T01:23:09;27.70;60.60
36990;DHT22;22898;52.102;5.776;2023-06-10T01:25:43;27.60;60.90
36990;DHT22;22898;52.102;5.776;2023-06-10T01:28:21;27.50;61.20
36990;DHT22;22898;52.102;5.776;2023-06-10T01:33:43;27.20;62.10
36990;DHT22;22898;52.102;5.776;2023-06-10T01:36:13;27.30;62.00
36990;DHT22;22898;52.102;5.776;2023-06-10T01:38:43;27.40;61.80
36990;DHT22;22898;52.102;5.776;2023-06-10T01:41:10;27.50;61.80
36990;DHT22;22898;52.102;5.776;2023-06-10T01:43:38;27.60;61.40
36990;DHT22;22898;52.102;5.776;2023-06-10T01:46:04;27.70;61.40
36990;DHT22;22898;52.102;5.776;2023-06-10T01:48:29;27.80;61.40
36990;DHT22;22898;52.102;5.776;2023-06-10T01:50:55;27.80;61.30
36990;DHT22;22898;52.102;5.776;2023-06-10T01:53:23;27.80;61.40
36990;DHT22;22898;52.102;5.776;2023-06-10T01:55:49;27.70;62.00
36990;DHT22;22898;52.102;5.776;2023-06-10T01:58:15;27.80;61.90
36990;DHT22;22898;52.102;5.776;2023-06-10T02:00:41;27.80;61.80
36990;DHT22;22898;52.102;5.776;2023-06-10T02:03:06;27.70;62.10
36990;DHT22;22898;52.102;5.776;2023-06-10T02:05:32;27.80;62.00
36990;DHT22;22898;52.102;5.776;2023-06-10T02:07:57;27.80;61.90
36990;DHT22;22898;52.102;5.776;2023-06-10T02:10:23;27.90;62.00
36990;DHT22;22898;52.102;5.776;2023-06-10T02:12:49;27.80;62.10
36990;DHT22;22898;52.102;5.776;2023-06-10T02:15:15;27.70;62.40
36990;DHT22;22898;52.102;5.776;2023-06-10T02:17:40;27.60;62.80
36990;DHT22;22898;52.102;5.776;2023-06-10T02:20:06;27.50;63.10
36990;DHT22;22898;52.102;5.776;2023-06-10T02:22:32;27.50;63.20
36990;DHT22;22898;52.102;5.776;2023-06-10T02:24:58;27.40;63.80
36990;DHT22;22898;52.102;5.776;2023-06-10T02:27:24;27.10;64.50
36990;DHT22;22898;52.102;5.776;2023-06-10T02:29:50;27.00;64.50
36990;DHT22;22898;52.102;5.776;2023-06-10T02:32:16;27.00;64.90
36990;DHT22;22898;52.102;5.776;2023-06-10T02:34:42;27.10;64.70
36990;DHT22;22898;52.102;5.776;2023-06-10T02:37:08;27.10;64.70
36990;DHT22;22898;52.102;5.776;2023-06-10T02:39:34;26.90;65.10
36990;DHT22;22898;52.102;5.776;2023-06-10T02:41:59;27.00;65.10
36990;DHT22;22898;52.102;5.776;2023-06-10T02:44:25;27.10;65.00
36990;DHT22;22898;52.102;5.776;2023-06-10T02:46:51;27.20;64.90
36990;DHT22;22898;52.102;5.776;2023-06-10T02:49:17;27.10;65.70
36990;DHT22;22898;52.102;5.776;2023-06-10T02:51:42;27.10;65.60
36990;DHT22;22898;52.102;5.776;2023-06-10T02:54:08;26.90;65.80
36990;DHT22;22898;52.102;5.776;2023-06-10T02:56:33;27.00;65.80
36990;DHT22;22898;52.102;5.776;2023-06-10T02:59:00;27.10;65.40
36990;DHT22;22898;52.102;5.776;2023-06-10T03:01:26;27.20;65.70
36990;DHT22;22898;52.102;5.776;2023-06-10T03:03:51;27.20;65.60
36990;DHT22;22898;52.102;5.776;2023-06-10T03:06:17;27.20;65.50
36990;DHT22;22898;52.102;5.776;2023-06-10T03:08:44;27.20;65.60
36990;DHT22;22898;52.102;5.776;2023-06-10T03:11:11;27.30;65.50
36990;DHT22;22898;52.102;5.776;2023-06-10T03:13:38;27.10;65.90
36990;DHT22;22898;52.102;5.776;2023-06-10T03:16:05;27.20;66.00
36990;DHT22;22898;52.102;5.776;2023-06-10T03:18:30;27.10;66.00
36990;DHT22;22898;52.102;5.776;2023-06-10T03:20:56;27.10;66.30
36990;DHT22;22898;52.102;5.776;2023-06-10T03:23:23;27.10;66.20
36990;DHT22;22898;52.102;5.776;2023-06-10T03:25:48;27.10;66.70
36990;DHT22;22898;52.102;5.776;2023-06-10T03:28:14;27.00;66.80
36990;DHT22;22898;52.102;5.776;2023-06-10T03:30:40;27.00;66.60
36990;DHT22;22898;52.102;5.776;2023-06-10T03:33:05;26.90;67.20
36990;DHT22;22898;52.102;5.776;2023-06-10T03:35:31;27.00;67.20
36990;DHT22;22898;52.102;5.776;2023-06-10T03:38:00;26.90;67.60
36990;DHT22;22898;52.102;5.776;2023-06-10T03:40:25;26.90;67.60
36990;DHT22;22898;52.102;5.776;2023-06-10T03:42:51;26.80;68.00
36990;DHT22;22898;52.102;5.776;2023-06-10T03:45:16;26.70;68.20
36990;DHT22;22898;52.102;5.776;2023-06-10T03:47:43;26.60;68.40
36990;DHT22;22898;52.102;5.776;2023-06-10T03:50:09;26.50;68.60
36990;DHT22;22898;52.102;5.776;2023-06-10T03:52:35;26.30;69.70
36990;DHT22;22898;52.102;5.776;2023-06-10T03:55:01;26.20;70.90
36990;DHT22;22898;52.102;5.776;2023-06-10T03:57:27;26.20;70.20
36990;DHT22;22898;52.102;5.776;2023-06-10T03:59:53;26.30;69.80
36990;DHT22;22898;52.102;5.776;2023-06-10T04:02:18;26.20;70.30
36990;DHT22;22898;52.102;5.776;2023-06-10T04:04:44;26.30;70.30
36990;DHT22;22898;52.102;5.776;2023-06-10T04:07:10;26.30;70.10
36990;DHT22;22898;52.102;5.776;2023-06-10T04:09:36;26.40;70.20
36990;DHT22;22898;52.102;5.776;2023-06-10T04:12:02;26.30;70.20
36990;DHT22;22898;52.102;5.776;2023-06-10T04:14:31;26.40;70.00
36990;DHT22;22898;52.102;5.776;2023-06-10T04:16:57;26.30;70.30
36990;DHT22;22898;52.102;5.776;2023-06-10T04:19:22;26.30;70.70
36990;DHT22;22898;52.102;5.776;2023-06-10T04:21:48;26.30;70.80
36990;DHT22;22898;52.102;5.776;2023-06-10T04:24:13;26.20;71.30
36990;DHT22;22898;52.102;5.776;2023-06-10T04:26:39;26.30;71.10
36990;DHT22;22898;52.102;5.776;2023-06-10T04:29:04;26.00;71.70
36990;DHT22;22898;52.102;5.776;2023-06-10T04:31:30;25.80;72.50
36990;DHT22;22898;52.102;5.776;2023-06-10T04:33:57;25.90;72.70
36990;DHT22;22898;52.102;5.776;2023-06-10T04:36:23;26.00;72.70
36990;DHT22;22898;52.102;5.776;2023-06-10T04:38:49;26.00;72.40
36990;DHT22;22898;52.102;5.776;2023-06-10T04:41:14;26.00;72.40
36990;DHT22;22898;52.102;5.776;2023-06-10T04:43:40;26.10;72.40
36990;DHT22;22898;52.102;5.776;2023-06-10T04:46:05;26.10;72.50
36990;DHT22;22898;52.102;5.776;2023-06-10T04:48:31;26.30;72.30
36990;DHT22;22898;52.102;5.776;2023-06-10T04:50:58;26.50;71.70
36990;DHT22;22898;52.102;5.776;2023-06-10T04:53:24;26.60;71.40
36990;DHT22;22898;52.102;5.776;2023-06-10T04:55:49;26.50;71.40
36990;DHT22;22898;52.102;5.776;2023-06-10T04:58:15;26.60;71.40
36990;DHT22;22898;52.102;5.776;2023-06-10T05:00:41;26.60;71.60
36990;DHT22;22898;52.102;5.776;2023-06-10T05:03:07;26.40;71.70
36990;DHT22;22898;52.102;5.776;2023-06-10T05:05:32;26.40;72.30
36990;DHT22;22898;52.102;5.776;2023-06-10T05:07:58;26.30;72.60
36990;DHT22;22898;52.102;5.776;2023-06-10T05:10:24;26.10;72.50
36990;DHT22;22898;52.102;5.776;2023-06-10T05:12:49;26.30;72.50
36990;DHT22;22898;52.102;5.776;2023-06-10T05:15:15;26.50;72.30
36990;DHT22;22898;52.102;5.776;2023-06-10T05:17:40;26.50;72.00
36990;DHT22;22898;52.102;5.776;2023-06-10T05:20:06;26.50;72.10
36990;DHT22;22898;52.102;5.776;2023-06-10T05:22:32;26.60;72.00
36990;DHT22;22898;52.102;5.776;2023-06-10T05:24:57;26.30;72.60
36990;DHT22;22898;52.102;5.776;2023-06-10T05:27:23;26.20;73.10
36990;DHT22;22898;52.102;5.776;2023-06-10T05:29:49;26.30;72.80
36990;DHT22;22898;52.102;5.776;2023-06-10T05:32:17;26.50;72.80
36990;DHT22;22898;52.102;5.776;2023-06-10T05:34:43;26.70;71.80
36990;DHT22;22898;52.102;5.776;2023-06-10T05:37:08;26.90;71.40
36990;DHT22;22898;52.102;5.776;2023-06-10T05:39:35;27.30;70.20
36990;DHT22;22898;52.102;5.776;2023-06-10T05:42:03;27.60;69.10
36990;DHT22;22898;52.102;5.776;2023-06-10T05:44:29;27.80;68.40
36990;DHT22;22898;52.102;5.776;2023-06-10T05:46:55;27.80;68.40
36990;DHT22;22898;52.102;5.776;2023-06-10T05:49:20;27.80;69.10
36990;DHT22;22898;52.102;5.776;2023-06-10T05:51:46;27.50;69.40
36990;DHT22;22898;52.102;5.776;2023-06-10T05:54:12;27.40;70.10
36990;DHT22;22898;52.102;5.776;2023-06-10T05:56:37;27.50;69.70
36990;DHT22;22898;52.102;5.776;2023-06-10T05:59:03;27.40;70.10
36990;DHT22;22898;52.102;5.776;2023-06-10T06:01:29;27.40;70.20
36990;DHT22;22898;52.102;5.776;2023-06-10T06:03:54;27.40;69.40
36990;DHT22;22898;52.102;5.776;2023-06-10T06:06:20;27.50;69.80
36990;DHT22;22898;52.102;5.776;2023-06-10T06:08:46;27.60;69.60
36990;DHT22;22898;52.102;5.776;2023-06-10T06:11:11;27.70;69.70
36990;DHT22;22898;52.102;5.776;2023-06-10T06:13:37;27.70;69.30
36990;DHT22;22898;52.102;5.776;2023-06-10T06:16:02;27.70;68.90
36990;DHT22;22898;52.102;5.776;2023-06-10T06:18:28;27.60;69.70
36990;DHT22;22898;52.102;5.776;2023-06-10T06:20:53;27.30;69.90
36990;DHT22;22898;52.102;5.776;2023-06-10T06:23:19;27.30;70.10
36990;DHT22;22898;52.102;5.776;2023-06-10T06:25:45;27.30;70.00
36990;DHT22;22898;52.102;5.776;2023-06-10T06:28:10;27.50;70.30
36990;DHT22;22898;52.102;5.776;2023-06-10T06:30:36;27.70;69.70
36990;DHT22;22898;52.102;5.776;2023-06-10T06:33:02;28.10;69.60
36990;DHT22;22898;52.102;5.776;2023-06-10T06:35:27;28.30;67.70
36990;DHT22;22898;52.102;5.776;2023-06-10T06:37:55;28.60;67.30
36990;DHT22;22898;52.102;5.776;2023-06-10T06:40:22;28.50;67.90
36990;DHT22;22898;52.102;5.776;2023-06-10T06:42:47;28.60;67.70
36990;DHT22;22898;52.102;5.776;2023-06-10T06:45:13;28.70;66.80
36990;DHT22;22898;52.102;5.776;2023-06-10T06:47:38;28.60;67.00
36990;DHT22;22898;52.102;5.776;2023-06-10T06:50:04;28.40;67.90
36990;DHT22;22898;52.102;5.776;2023-06-10T06:52:30;28.60;67.40
36990;DHT22;22898;52.102;5.776;2023-06-10T06:54:55;28.80;67.10
36990;DHT22;22898;52.102;5.776;2023-06-10T06:57:22;28.50;66.80
36990;DHT22;22898;52.102;5.776;2023-06-10T06:59:48;28.50;68.10
36990;DHT22;22898;52.102;5.776;2023-06-10T07:02:14;28.60;67.10
36990;DHT22;22898;52.102;5.776;2023-06-10T07:04:39;28.80;66.60
36990;DHT22;22898;52.102;5.776;2023-06-10T07:07:07;29.20;66.70
36990;DHT22;22898;52.102;5.776;2023-06-10T07:09:33;29.40;66.30
36990;DHT22;22898;52.102;5.776;2023-06-10T07:11:59;29.40;66.60
36990;DHT22;22898;52.102;5.776;2023-06-10T07:14:25;29.10;65.10
36990;DHT22;22898;52.102;5.776;2023-06-10T07:16:50;29.00;66.90
36990;DHT22;22898;52.102;5.776;2023-06-10T07:19:16;29.20;65.80
36990;DHT22;22898;52.102;5.776;2023-06-10T07:21:41;29.30;66.00
36990;DHT22;22898;52.102;5.776;2023-06-10T07:24:07;29.30;66.00
36990;DHT22;22898;52.102;5.776;2023-06-10T07:26:33;29.30;66.00
36990;DHT22;22898;52.102;5.776;2023-06-10T07:28:58;29.50;65.80
36990;DHT22;22898;52.102;5.776;2023-06-10T07:31:24;29.60;64.40
36990;DHT22;22898;52.102;5.776;2023-06-10T07:33:50;29.70;64.80
36990;DHT22;22898;52.102;5.776;2023-06-10T07:36:15;29.40;64.50
36990;DHT22;22898;52.102;5.776;2023-06-10T07:38:41;29.50;65.10
36990;DHT22;22898;52.102;5.776;2023-06-10T07:41:08;29.50;64.20
36990;DHT22;22898;52.102;5.776;2023-06-10T07:43:33;29.60;64.10
36990;DHT22;22898;52.102;5.776;2023-06-10T07:45:59;29.80;63.50
36990;DHT22;22898;52.102;5.776;2023-06-10T07:48:25;29.80;63.90
36990;DHT22;22898;52.102;5.776;2023-06-10T07:50:52;30.00;63.70
36990;DHT22;22898;52.102;5.776;2023-06-10T07:53:17;30.00;63.70
36990;DHT22;22898;52.102;5.776;2023-06-10T07:55:43;30.00;62.30
36990;DHT22;22898;52.102;5.776;2023-06-10T07:58:09;29.90;62.90
36990;DHT22;22898;52.102;5.776;2023-06-10T08:00:35;29.80;63.20
36990;DHT22;22898;52.102;5.776;2023-06-10T08:03:01;29.90;63.20
36990;DHT22;22898;52.102;5.776;2023-06-10T08:05:26;30.00;62.90
36990;DHT22;22898;52.102;5.776;2023-06-10T08:07:52;30.10;62.40
36990;DHT22;22898;52.102;5.776;2023-06-10T08:10:18;30.10;62.30
36990;DHT22;22898;52.102;5.776;2023-06-10T08:12:44;30.20;62.10
36990;DHT22;22898;52.102;5.776;2023-06-10T08:15:10;30.30;61.30
36990;DHT22;22898;52.102;5.776;2023-06-10T08:17:36;30.70;61.70
36990;DHT22;22898;52.102;5.776;2023-06-10T08:20:02;30.90;60.60
36990;DHT22;22898;52.102;5.776;2023-06-10T08:22:28;31.00;60.50
36990;DHT22;22898;52.102;5.776;2023-06-10T08:24:54;31.00;59.80
36990;DHT22;22898;52.102;5.776;2023-06-10T08:27:21;31.00;60.40
36990;DHT22;22898;52.102;5.776;2023-06-10T08:29:47;31.10;60.10
36990;DHT22;22898;52.102;5.776;2023-06-10T08:32:12;31.30;60.70
36990;DHT22;22898;52.102;5.776;2023-06-10T08:34:38;31.20;60.80
36990;DHT22;22898;52.102;5.776;2023-06-10T08:37:04;31.10;60.00
36990;DHT22;22898;52.102;5.776;2023-06-10T08:39:30;31.00;60.20
36990;DHT22;22898;52.102;5.776;2023-06-10T08:42:52;30.90;61.90
36990;DHT22;22898;52.102;5.776;2023-06-10T08:45:01;31.20;61.40
36990;DHT22;22898;52.102;5.776;2023-06-10T08:47:29;31.70;59.90
36990;DHT22;22898;52.102;5.776;2023-06-10T08:49:57;31.90;59.70
36990;DHT22;22898;52.102;5.776;2023-06-10T08:52:34;31.90;59.70
36990;DHT22;22898;52.102;5.776;2023-06-10T08:55:03;31.70;59.10
36990;DHT22;22898;52.102;5.776;2023-06-10T08:57:30;31.90;59.20
36990;DHT22;22898;52.102;5.776;2023-06-10T08:59:57;31.90;58.80
36990;DHT22;22898;52.102;5.776;2023-06-10T09:02:23;31.80;58.70
36990;DHT22;22898;52.102;5.776;2023-06-10T09:04:50;31.80;60.00
36990;DHT22;22898;52.102;5.776;2023-06-10T09:07:16;32.00;58.30
36990;DHT22;22898;52.102;5.776;2023-06-10T09:09:43;32.10;57.60
36990;DHT22;22898;52.102;5.776;2023-06-10T09:12:10;32.10;57.50
36990;DHT22;22898;52.102;5.776;2023-06-10T09:14:37;32.10;57.30
36990;DHT22;22898;52.102;5.776;2023-06-10T09:17:03;32.30;57.80
36990;DHT22;22898;52.102;5.776;2023-06-10T09:19:30;32.50;57.80
36990;DHT22;22898;52.102;5.776;2023-06-10T09:21:56;32.70;57.00
36990;DHT22;22898;52.102;5.776;2023-06-10T09:24:22;32.80;56.90
36990;DHT22;22898;52.102;5.776;2023-06-10T09:26:48;32.90;57.10
36990;DHT22;22898;52.102;5.776;2023-06-10T09:29:16;32.70;57.20
36990;DHT22;22898;52.102;5.776;2023-06-10T09:31:43;32.50;57.30
36990;DHT22;22898;52.102;5.776;2023-06-10T09:34:14;32.30;58.00
36990;DHT22;22898;52.102;5.776;2023-06-10T09:36:40;32.20;58.70
36990;DHT22;22898;52.102;5.776;2023-06-10T09:39:14;32.50;58.00
36990;DHT22;22898;52.102;5.776;2023-06-10T09:41:44;32.70;56.70
36990;DHT22;22898;52.102;5.776;2023-06-10T09:44:20;32.70;56.90
36990;DHT22;22898;52.102;5.776;2023-06-10T09:46:47;32.80;55.80
36990;DHT22;22898;52.102;5.776;2023-06-10T09:49:14;32.70;56.30
36990;DHT22;22898;52.102;5.776;2023-06-10T09:51:53;33.00;56.20
36990;DHT22;22898;52.102;5.776;2023-06-10T09:54:19;33.10;56.00
36990;DHT22;22898;52.102;5.776;2023-06-10T09:56:49;33.20;55.40
36990;DHT22;22898;52.102;5.776;2023-06-10T09:59:27;33.10;55.20
36990;DHT22;22898;52.102;5.776;2023-06-10T10:01:56;33.20;56.00
36990;DHT22;22898;52.102;5.776;2023-06-10T10:04:25;33.40;55.40
36990;DHT22;22898;52.102;5.776;2023-06-10T10:06:51;33.60;54.20
36990;DHT22;22898;52.102;5.776;2023-06-10T10:09:17;33.80;54.10
36990;DHT22;22898;52.102;5.776;2023-06-10T10:11:44;33.90;54.00
36990;DHT22;22898;52.102;5.776;2023-06-10T10:14:10;34.00;54.70
36990;DHT22;22898;52.102;5.776;2023-06-10T10:16:37;34.10;54.40
36990;DHT22;22898;52.102;5.776;2023-06-10T10:19:15;33.90;53.20
36990;DHT22;22898;52.102;5.776;2023-06-10T10:21:53;33.90;52.80
36990;DHT22;22898;52.102;5.776;2023-06-10T10:24:21;33.60;53.50
36990;DHT22;22898;52.102;5.776;2023-06-10T10:26:48;33.90;53.30
36990;DHT22;22898;52.102;5.776;2023-06-10T10:29:21;34.20;52.20
36990;DHT22;22898;52.102;5.776;2023-06-10T10:31:50;34.20;50.40
36990;DHT22;22898;52.102;5.776;2023-06-10T10:34:26;33.90;51.70
36990;DHT22;22898;52.102;5.776;2023-06-10T10:36:55;34.00;51.30
36990;DHT22;22898;52.102;5.776;2023-06-10T10:39:22;34.00;51.20
36990;DHT22;22898;52.102;5.776;2023-06-10T10:41:48;34.20;49.50
36990;DHT22;22898;52.102;5.776;2023-06-10T10:44:14;34.30;49.90
36990;DHT22;22898;52.102;5.776;2023-06-10T10:46:45;34.20;47.60
36990;DHT22;22898;52.102;5.776;2023-06-10T10:49:14;34.30;49.10
36990;DHT22;22898;52.102;5.776;2023-06-10T10:51:54;34.40;50.60
36990;DHT22;22898;52.102;5.776;2023-06-10T10:54:29;34.70;49.80
36990;DHT22;22898;52.102;5.776;2023-06-10T10:57:21;34.60;49.70
36990;DHT22;22898;52.102;5.776;2023-06-10T10:59:57;34.60;49.10
36990;DHT22;22898;52.102;5.776;2023-06-10T11:02:36;34.70;47.60
36990;DHT22;22898;52.102;5.776;2023-06-10T11:05:06;34.80;49.90
36990;DHT22;22898;52.102;5.776;2023-06-10T11:07:34;34.70;49.70
36990;DHT22;22898;52.102;5.776;2023-06-10T11:10:00;34.70;49.40
36990;DHT22;22898;52.102;5.776;2023-06-10T11:12:47;34.70;49.80
36990;DHT22;22898;52.102;5.776;2023-06-10T11:15:13;34.70;49.20
36990;DHT22;22898;52.102;5.776;2023-06-10T11:31:22;35.30;47.80
36990;DHT22;22898;52.102;5.776;2023-06-10T11:36:21;35.20;49.00
36990;DHT22;22898;52.102;5.776;2023-06-10T11:38:46;35.50;48.60
36990;DHT22;22898;52.102;5.776;2023-06-10T11:41:14;35.70;48.10
36990;DHT22;22898;52.102;5.776;2023-06-10T11:43:44;35.50;49.80
36990;DHT22;22898;52.102;5.776;2023-06-10T11:46:14;35.50;49.30
36990;DHT22;22898;52.102;5.776;2023-06-10T11:48:51;35.70;48.10
36990;DHT22;22898;52.102;5.776;2023-06-10T11:51:17;35.70;48.30
36990;DHT22;22898;52.102;5.776;2023-06-10T11:53:46;35.60;48.70
36990;DHT22;22898;52.102;5.776;2023-06-10T11:56:12;35.70;48.90
36990;DHT22;22898;52.102;5.776;2023-06-10T11:58:42;35.50;49.00
36990;DHT22;22898;52.102;5.776;2023-06-10T12:01:09;35.50;48.90
36990;DHT22;22898;52.102;5.776;2023-06-10T12:03:38;35.60;48.80
36990;DHT22;22898;52.102;5.776;2023-06-10T12:06:07;35.50;48.70
36990;DHT22;22898;52.102;5.776;2023-06-10T12:08:33;35.40;49.30
36990;DHT22;22898;52.102;5.776;2023-06-10T12:11:06;35.40;49.70
36990;DHT22;22898;52.102;5.776;2023-06-10T12:13:32;35.40;49.50
36990;DHT22;22898;52.102;5.776;2023-06-10T12:16:08;35.40;49.10
36990;DHT22;22898;52.102;5.776;2023-06-10T12:18:34;35.80;48.60
36990;DHT22;22898;52.102;5.776;2023-06-10T12:21:00;35.90;48.70
36990;DHT22;22898;52.102;5.776;2023-06-10T12:23:25;36.00;48.80
36990;DHT22;22898;52.102;5.776;2023-06-10T12:25:55;36.40;48.20
36990;DHT22;22898;52.102;5.776;2023-06-10T12:28:25;36.40;48.60
36990;DHT22;22898;52.102;5.776;2023-06-10T12:30:51;36.40;47.80
36990;DHT22;22898;52.102;5.776;2023-06-10T12:33:18;36.10;48.50
36990;DHT22;22898;52.102;5.776;2023-06-10T12:35:48;36.10;49.10
36990;DHT22;22898;52.102;5.776;2023-06-10T12:38:15;36.40;48.70
36990;DHT22;22898;52.102;5.776;2023-06-10T12:40:47;36.30;47.60
36990;DHT22;22898;52.102;5.776;2023-06-10T12:43:13;36.10;48.10
36990;DHT22;22898;52.102;5.776;2023-06-10T12:45:41;36.10;48.10
36990;DHT22;22898;52.102;5.776;2023-06-10T12:48:21;36.20;47.90
36990;DHT22;22898;52.102;5.776;2023-06-10T12:50:51;36.30;48.50
36990;DHT22;22898;52.102;5.776;2023-06-10T12:53:18;36.00;48.20
36990;DHT22;22898;52.102;5.776;2023-06-10T12:55:44;36.10;48.50
36990;DHT22;22898;52.102;5.776;2023-06-10T12:58:11;36.20;48.50
36990;DHT22;22898;52.102;5.776;2023-06-10T13:00:37;36.10;48.10
36990;DHT22;22898;52.102;5.776;2023-06-10T13:03:03;36.00;47.20
36990;DHT22;22898;52.102;5.776;2023-06-10T13:05:31;36.00;47.50
36990;DHT22;22898;52.102;5.776;2023-06-10T13:07:57;36.00;48.20
36990;DHT22;22898;52.102;5.776;2023-06-10T13:10:23;36.30;47.60
36990;DHT22;22898;52.102;5.776;2023-06-10T13:12:51;36.60;47.80
36990;DHT22;22898;52.102;5.776;2023-06-10T13:15:17;36.90;46.10
36990;DHT22;22898;52.102;5.776;2023-06-10T13:17:44;37.00;45.80
36990;DHT22;22898;52.102;5.776;2023-06-10T13:20:10;37.10;45.90
36990;DHT22;22898;52.102;5.776;2023-06-10T13:22:36;37.20;45.70
36990;DHT22;22898;52.102;5.776;2023-06-10T13:25:03;36.90;46.60
36990;DHT22;22898;52.102;5.776;2023-06-10T13:27:29;37.10;46.40
36990;DHT22;22898;52.102;5.776;2023-06-10T13:29:54;36.90;46.20
36990;DHT22;22898;52.102;5.776;2023-06-10T13:32:20;36.80;46.00
36990;DHT22;22898;52.102;5.776;2023-06-10T13:34:46;36.70;46.40
36990;DHT22;22898;52.102;5.776;2023-06-10T13:37:12;36.80;46.90
36990;DHT22;22898;52.102;5.776;2023-06-10T13:39:42;36.90;46.40
36990;DHT22;22898;52.102;5.776;2023-06-10T13:42:08;37.00;46.60
36990;DHT22;22898;52.102;5.776;2023-06-10T13:44:34;37.20;45.70
36990;DHT22;22898;52.102;5.776;2023-06-10T13:47:04;37.10;45.20
36990;DHT22;22898;52.102;5.776;2023-06-10T13:49:30;37.00;45.20
36990;DHT22;22898;52.102;5.776;2023-06-10T13:51:56;36.80;45.50
36990;DHT22;22898;52.102;5.776;2023-06-10T13:54:21;36.60;45.90
36990;DHT22;22898;52.102;5.776;2023-06-10T13:56:47;36.50;46.20
36990;DHT22;22898;52.102;5.776;2023-06-10T13:59:13;36.70;46.40
36990;DHT22;22898;52.102;5.776;2023-06-10T14:01:39;37.00;45.80
36990;DHT22;22898;52.102;5.776;2023-06-10T14:04:06;36.90;45.30
36990;DHT22;22898;52.102;5.776;2023-06-10T14:06:32;36.60;45.80
36990;DHT22;22898;52.102;5.776;2023-06-10T14:08:59;36.50;46.00
36990;DHT22;22898;52.102;5.776;2023-06-10T14:11:24;36.70;45.60
36990;DHT22;22898;52.102;5.776;2023-06-10T14:13:50;36.80;46.00
36990;DHT22;22898;52.102;5.776;2023-06-10T14:16:15;36.80;46.30
36990;DHT22;22898;52.102;5.776;2023-06-10T14:18:41;36.80;46.00
36990;DHT22;22898;52.102;5.776;2023-06-10T14:21:07;36.90;46.00
36990;DHT22;22898;52.102;5.776;2023-06-10T14:23:32;36.60;45.80
36990;DHT22;22898;52.102;5.776;2023-06-10T14:25:58;36.60;46.20
36990;DHT22;22898;52.102;5.776;2023-06-10T14:28:24;36.20;47.00
36990;DHT22;22898;52.102;5.776;2023-06-10T14:30:51;36.40;47.30
36990;DHT22;22898;52.102;5.776;2023-06-10T14:33:17;36.00;47.50
36990;DHT22;22898;52.102;5.776;2023-06-10T14:35:43;35.50;47.50
36990;DHT22;22898;52.102;5.776;2023-06-10T14:38:09;35.70;46.70
36990;DHT22;22898;52.102;5.776;2023-06-10T14:40:35;35.90;46.80
36990;DHT22;22898;52.102;5.776;2023-06-10T14:43:00;36.10;46.40
36990;DHT22;22898;52.102;5.776;2023-06-10T14:45:29;36.10;45.90
36990;DHT22;22898;52.102;5.776;2023-06-10T14:47:55;36.20;45.80
36990;DHT22;22898;52.102;5.776;2023-06-10T14:50:20;36.40;45.50
36990;DHT22;22898;52.102;5.776;2023-06-10T14:52:46;36.70;44.50
36990;DHT22;22898;52.102;5.776;2023-06-10T14:55:12;36.60;44.20
36990;DHT22;22898;52.102;5.776;2023-06-10T14:57:37;36.20;44.50
36990;DHT22;22898;52.102;5.776;2023-06-10T15:00:03;35.50;45.60
36990;DHT22;22898;52.102;5.776;2023-06-10T15:02:29;35.60;46.10
36990;DHT22;22898;52.102;5.776;2023-06-10T15:04:55;35.90;45.70
36990;DHT22;22898;52.102;5.776;2023-06-10T15:07:20;36.30;44.80
36990;DHT22;22898;52.102;5.776;2023-06-10T15:09:46;36.40;44.80
36990;DHT22;22898;52.102;5.776;2023-06-10T15:12:11;36.30;44.50
36990;DHT22;22898;52.102;5.776;2023-06-10T15:14:37;36.40;44.70
36990;DHT22;22898;52.102;5.776;2023-06-10T15:17:02;36.40;44.50
36990;DHT22;22898;52.102;5.776;2023-06-10T15:19:28;36.50;43.90
36990;DHT22;22898;52.102;5.776;2023-06-10T15:21:54;36.50;44.60
36990;DHT22;22898;52.102;5.776;2023-06-10T15:24:20;36.50;44.00
36990;DHT22;22898;52.102;5.776;2023-06-10T15:26:45;36.50;44.80
36990;DHT22;22898;52.102;5.776;2023-06-10T15:29:11;36.50;44.30
36990;DHT22;22898;52.102;5.776;2023-06-10T15:31:37;36.50;44.40
36990;DHT22;22898;52.102;5.776;2023-06-10T15:34:02;36.60;44.50
36990;DHT22;22898;52.102;5.776;2023-06-10T15:36:29;36.60;45.10
36990;DHT22;22898;52.102;5.776;2023-06-10T15:39:01;36.80;45.70
36990;DHT22;22898;52.102;5.776;2023-06-10T15:41:28;36.80;45.30
36990;DHT22;22898;52.102;5.776;2023-06-10T15:43:53;36.50;45.50
36990;DHT22;22898;52.102;5.776;2023-06-10T15:46:19;36.60;44.50
36990;DHT22;22898;52.102;5.776;2023-06-10T15:48:44;36.60;45.80
36990;DHT22;22898;52.102;5.776;2023-06-10T15:51:10;36.30;45.20